ADDS METAR Data INFO
IDs: Format: Raw Decoded Include TAF

Data at: 2022 UTC 16 Dec 2017

K5T9 162015Z AUTO 12006KT 4SM BR BKN013 BKN017 08/06 A3003 RMK A01
K5T9 161955Z AUTO 14007KT 130V190 3SM HZ BKN018 08/05 A3005 RMK A01
K5T9 161935Z AUTO 15007KT 110V180 10SM OVC019 08/04 A3007 RMK A01
K5T9 161915Z AUTO 13009KT 10SM OVC020 08/04 A3007 RMK A01
K5T9 161855Z AUTO 10SM OVC020 08/04 A3009 RMK A01
K5T9 161835Z AUTO 10SM BKN023 OVC027 08/03 A3008 RMK A01
K5T9 161815Z AUTO 15009KT 10SM OVC027 09/03 A3012 RMK A01
K5T9 161755Z AUTO 18005KT 10SM OVC028 09/03 A3013 RMK A01
K5T9 161735Z AUTO 17008G13KT 10SM OVC028 09/03 A3016 RMK A01
K5T9 161715Z AUTO 13007KT 10SM OVC027 09/03 A3013 RMK A01
K5T9 161655Z AUTO 17007KT 10SM OVC025 09/03 A3017 RMK A01
K5T9 161635Z AUTO 10SM BKN027 OVC033 09/03 A3016 RMK A01
K5T9 161615Z AUTO 15006G11KT 10SM OVC033 09/03 A3013 RMK A01
K5T9 161555Z AUTO 16007KT 10SM OVC036 09/04 A3015 RMK A01
K5T9 161535Z AUTO 17007KT 10SM OVC039 09/04 A3014 RMK A01
K5T9 161515Z AUTO 17007KT 10SM OVC039 09/04 A3014 RMK A01
K5T9 161455Z AUTO VRB06KT 140V200 10SM OVC040 09/04 A3014 RMK A01
K5T9 161435Z AUTO VRB06KT 10SM FEW039 OVC046 09/05 A3013 RMK A01
K5T9 161415Z AUTO VRB06KT 10SM BKN048 BKN055 OVC070 09/05 A3011 RMK A01
K5T9 161355Z AUTO 13006KT 10SM OVC047 08/05 A3011 RMK A01
K5T9 161335Z AUTO 13004KT 10SM BKN048 BKN060 OVC110 08/05 A3012 RMK A01
K5T9 161315Z AUTO 13005KT 10SM SCT050 BKN080 OVC110 08/05 A3011 RMK A01
K5T9 161255Z AUTO 13005KT 10SM FEW041 BKN050 OVC110 08/05 A3012 RMK A01
K5T9 161235Z AUTO 12003KT 10SM FEW041 OVC050 08/04 A3012 RMK A01
K5T9 161215Z AUTO 00000KT 10SM OVC050 08/05 A3013 RMK A01
K5T9 161155Z AUTO 00000KT 10SM OVC055 08/04 A3013 RMK A01
K5T9 161135Z AUTO 13003KT 10SM OVC060 08/05 A3013 RMK A01
K5T9 161115Z AUTO 00000KT 10SM OVC065 08/05 A3015 RMK A01
K5T9 161055Z AUTO 13003KT 10SM OVC070 08/05 A3015 RMK A01
K5T9 161035Z AUTO 00000KT 10SM BKN070 BKN120 08/05 A3016 RMK A01
K5T9 161015Z AUTO 00000KT 10SM BKN065 BKN120 08/05 A3016 RMK A01
K5T9 160955Z AUTO 00000KT 10SM OVC065 08/04 A3017 RMK A01
K5T9 160935Z AUTO 16004KT 10SM OVC070 08/05 A3019 RMK A01
K5T9 160915Z AUTO 00000KT 10SM OVC070 08/04 A3018 RMK A01
K5T9 160855Z AUTO 16003KT 10SM OVC070 08/05 A3019 RMK A01
K5T9 160835Z AUTO 00000KT 10SM OVC070 08/04 A3018 RMK A01
K5T9 160815Z AUTO 00000KT 10SM OVC075 09/04 A3020 RMK A01
K5T9 160755Z AUTO 19004KT 10SM OVC075 09/05 A3022 RMK A01
K5T9 160735Z AUTO 17003KT 10SM OVC075 09/05 A3022 RMK A01
K5T9 160715Z AUTO 18004KT 10SM OVC075 09/06 A3023 RMK A01
K5T9 160655Z AUTO 20004KT 10SM OVC075 09/06 A3024 RMK A01
K5T9 160635Z AUTO 21004KT 10SM FEW016 OVC080 09/06 A3025 RMK A01
K5T9 160615Z AUTO 21005KT 10SM BKN016 OVC080 09/06 A3026 RMK A01
K5T9 160555Z AUTO 21005KT 10SM OVC015 08/06 A3027 RMK A01
K5T9 160535Z AUTO 21006KT 10SM BKN013 OVC060 07/05 A3027 RMK A01
K5T9 160515Z AUTO 20004KT 10SM BKN013 OVC085 07/05 A3025 RMK A01
K5T9 160455Z AUTO 20005KT 10SM FEW013 OVC085 07/04 A3025 RMK A01
K5T9 160435Z AUTO 21004KT 10SM OVC085 07/04 A3025 RMK A01
K5T9 160415Z AUTO 00000KT 10SM OVC090 07/03 A3025 RMK A01
K5T9 160355Z AUTO 19004KT 10SM SCT065 BKN090 07/03 A3026 RMK A01
K5T9 160335Z AUTO 18004KT 10SM BKN065 BKN100 07/03 A3026 RMK A01
K5T9 160315Z AUTO 18004KT 10SM SCT065 BKN100 07/02 A3026 RMK A01
K5T9 160255Z AUTO 19005KT 10SM FEW020 FEW029 BKN065 07/03 A3027 RMK A01
K5T9 160235Z AUTO 17004KT 10SM FEW029 FEW035 SCT065 07/02 A3026 RMK A01
K5T9 160215Z AUTO 17004KT 10SM BKN060 08/02 A3026 RMK A01
K5T9 160155Z AUTO 17004KT 10SM BKN065 08/02 A3027 RMK A01
K5T9 160135Z AUTO 17005KT 10SM BKN065 08/02 A3027 RMK A01
K5T9 160115Z AUTO 17003KT 10SM BKN065 08/02 A3026 RMK A01
K5T9 160055Z AUTO 18005KT 10SM OVC070 09/02 A3027 RMK A01
K5T9 160035Z AUTO 17005KT 10SM BKN070 09/02 A3026 RMK A01
K5T9 160015Z AUTO 19004KT 10SM CLR 10/04 A3027 RMK A01
K5T9 152355Z AUTO 00000KT 10SM CLR 11/03 A3026 RMK A01
K5T9 152335Z AUTO 23004KT 10SM CLR 12/02 A3027 RMK A01
K5T9 152315Z AUTO 23004KT 10SM CLR 13/01 A3026 RMK A01
K5T9 152255Z AUTO 10SM CLR 13/01 A3025 RMK A01
K5T9 152235Z AUTO 25003KT 10SM CLR 13/01 A3025 RMK A01
K5T9 152215Z AUTO 10SM CLR 14/M00 A3026 RMK A01
K5T9 152155Z AUTO 10SM CLR 14/00 A3027 RMK A01
K5T9 152135Z AUTO 00000KT 10SM CLR 14/00 A3027 RMK A01
K5T9 152115Z AUTO 00000KT 10SM FEW110 14/M00 A3028 RMK A01
K5T9 152055Z AUTO VRB04KT 10SM BKN110 14/00 A3028 RMK A01
K5T9 152035Z AUTO VRB04KT 10SM BKN110 14/M01 A3028 RMK A01
K5T9 152015Z AUTO 00000KT 10SM CLR 14/M01 A3028 RMK A01
K5T9 151955Z AUTO 10SM CLR 14/M01 A3027 RMK A01
K5T9 151935Z AUTO 00000KT 10SM CLR 14/M01 A3028 RMK A01
K5T9 151915Z AUTO 00000KT 10SM CLR 14/M00 A3029 RMK A01
K5T9 151855Z AUTO 35006KT 10SM CLR 14/M00 A3030 RMK A01
K5T9 151835Z AUTO 32004KT 10SM CLR 14/M00 A3033 RMK A01
K5T9 151815Z AUTO 00000KT 10SM CLR 13/M00 A3034 RMK A01
K5T9 151755Z AUTO 34006KT 10SM CLR 14/01 A3035 RMK A01
K5T9 151735Z AUTO VRB05G12KT 10SM CLR 13/M01 A3036 RMK A01
K5T9 151715Z AUTO VRB06KT 310V010 10SM CLR 13/00 A3036 RMK A01
K5T9 151655Z AUTO 34008KT 10SM CLR 12/01 A3037 RMK A01
K5T9 151635Z AUTO 34008KT 10SM CLR 11/01 A3038 RMK A01
K5T9 151615Z AUTO 34007KT 10SM CLR 11/01 A3037 RMK A01
K5T9 151555Z AUTO 34005KT 10SM CLR 11/02 A3037 RMK A01
K5T9 151535Z AUTO 31004KT 10SM CLR 10/03 A3038 RMK A01
K5T9 151515Z AUTO 32005KT 10SM CLR 10/03 A3036 RMK A01
K5T9 151455Z AUTO 00000KT 10SM CLR 09/04 A3035 RMK A01
K5T9 151435Z AUTO 32003KT 10SM CLR 09/04 A3034 RMK A01
K5T9 151415Z AUTO 32005KT 10SM CLR 09/04 A3033 RMK A01
K5T9 151355Z AUTO 33004KT 10SM SCT090 09/03 A3032 RMK A01
K5T9 151335Z AUTO 32006KT 10SM BKN080 OVC090 09/03 A3033 RMK A01
K5T9 151315Z AUTO 31005KT 10SM FEW060 OVC075 10/03 A3032 RMK A01
K5T9 151255Z AUTO 35005KT 10SM FEW032 FEW049 OVC060 09/03 A3031 RMK A01
K5T9 151235Z AUTO 00000KT 10SM BKN033 BKN045 OVC050 09/04 A3030 RMK A01
K5T9 151215Z AUTO 33005KT 10SM BKN034 OVC044 09/04 A3031 RMK A01
K5T9 151155Z AUTO VRB04KT 10SM FEW023 SCT034 OVC042 09/04 A3030 RMK A01
K5T9 151135Z AUTO 30004KT 10SM OVC040 09/04 A3030 RMK A01
K5T9 151115Z AUTO 31004KT 10SM FEW034 BKN044 OVC060 09/03 A3028 RMK A01
K5T9 151055Z AUTO 30005KT 10SM OVC060 10/03 A3030 RMK A01
K5T9 151035Z AUTO 30005KT 10SM OVC065 10/02 A3029 RMK A01
K5T9 151015Z AUTO 34004KT 10SM FEW050 SCT060 OVC070 11/02 A3028 RMK A01
K5T9 150955Z AUTO 36006G11KT 10SM BKN060 OVC075 11/02 A3027 RMK A01
K5T9 150935Z AUTO 36007G12KT 10SM FEW055 OVC070 12/M01 A3027 RMK A01
K5T9 150915Z AUTO 02007KT 10SM OVC075 12/M02 A3026 RMK A01
K5T9 150855Z AUTO 03007G12KT 10SM SCT055 BKN060 OVC075 12/M01 A3026 RMK A01
K5T9 150835Z AUTO 03006G14KT 10SM FEW031 SCT045 BKN050 12/M01 A3026 RMK A01